sensor_id;sensor_type;location;lat;lon;timestamp;P1;durP1;ratioP1;P2;durP2;ratioP2
44068;SDS011;29738;51.234;5.484;2022-10-04T00:01:28;13.93;;;7.70;;
44068;SDS011;29738;51.234;5.484;2022-10-04T00:04:01;15.60;;;9.40;;
44068;SDS011;29738;51.234;5.484;2022-10-04T00:06:32;16.60;;;8.43;;
44068;SDS011;29738;51.234;5.484;2022-10-04T00:09:00;14.68;;;8.70;;
44068;SDS011;29738;51.234;5.484;2022-10-04T00:11:37;13.07;;;8.45;;
44068;SDS011;29738;51.234;5.484;2022-10-04T00:14:21;12.48;;;7.95;;
44068;SDS011;29738;51.234;5.484;2022-10-04T00:16:49;15.48;;;9.82;;
44068;SDS011;29738;51.234;5.484;2022-10-04T00:52:04;15.68;;;7.80;;
44068;SDS011;29738;51.234;5.484;2022-10-04T00:54:37;12.15;;;7.57;;
44068;SDS011;29738;51.234;5.484;2022-10-04T01:02:17;11.75;;;7.53;;
44068;SDS011;29738;51.234;5.484;2022-10-04T01:04:50;14.80;;;7.32;;
44068;SDS011;29738;51.234;5.484;2022-10-04T01:07:22;12.40;;;7.50;;
44068;SDS011;29738;51.234;5.484;2022-10-04T01:10:12;12.48;;;6.55;;
44068;SDS011;29738;51.234;5.484;2022-10-04T01:12:50;12.38;;;7.60;;
44068;SDS011;29738;51.234;5.484;2022-10-04T01:15:36;15.80;;;7.32;;
44068;SDS011;29738;51.234;5.484;2022-10-04T01:23:42;11.32;;;6.75;;
44068;SDS011;29738;51.234;5.484;2022-10-04T01:31:42;12.73;;;6.60;;
44068;SDS011;29738;51.234;5.484;2022-10-04T01:34:14;13.95;;;6.20;;
44068;SDS011;29738;51.234;5.484;2022-10-04T01:36:45;9.93;;;6.55;;
44068;SDS011;29738;51.234;5.484;2022-10-04T01:39:13;11.20;;;5.78;;
44068;SDS011;29738;51.234;5.484;2022-10-04T01:44:38;10.85;;;6.20;;
44068;SDS011;29738;51.234;5.484;2022-10-04T01:47:15;12.13;;;5.88;;
44068;SDS011;29738;51.234;5.484;2022-10-04T01:50:03;10.18;;;5.75;;
44068;SDS011;29738;51.234;5.484;2022-10-04T01:52:38;12.50;;;6.10;;
44068;SDS011;29738;51.234;5.484;2022-10-04T01:55:11;9.40;;;5.57;;
44068;SDS011;29738;51.234;5.484;2022-10-04T01:57:41;8.27;;;5.50;;
44068;SDS011;29738;51.234;5.484;2022-10-04T02:00:12;11.63;;;6.65;;
44068;SDS011;29738;51.234;5.484;2022-10-04T02:02:58;9.75;;;5.25;;
44068;SDS011;29738;51.234;5.484;2022-10-04T02:05:32;12.02;;;5.68;;
44068;SDS011;29738;51.234;5.484;2022-10-04T02:08:05;11.73;;;5.22;;
44068;SDS011;29738;51.234;5.484;2022-10-04T02:10:34;11.27;;;6.45;;
44068;SDS011;29738;51.234;5.484;2022-10-04T02:13:03;10.82;;;5.03;;
44068;SDS011;29738;51.234;5.484;2022-10-04T02:15:34;11.00;;;5.93;;
44068;SDS011;29738;51.234;5.484;2022-10-04T02:18:04;10.82;;;5.35;;
44068;SDS011;29738;51.234;5.484;2022-10-04T02:20:47;7.90;;;4.90;;
44068;SDS011;29738;51.234;5.484;2022-10-04T02:23:18;11.05;;;5.45;;
44068;SDS011;29738;51.234;5.484;2022-10-04T02:25:45;10.50;;;5.50;;
44068;SDS011;29738;51.234;5.484;2022-10-04T02:28:11;12.65;;;5.68;;
44068;SDS011;29738;51.234;5.484;2022-10-04T02:30:48;9.27;;;4.88;;
44068;SDS011;29738;51.234;5.484;2022-10-04T02:33:38;7.95;;;4.85;;
44068;SDS011;29738;51.234;5.484;2022-10-04T02:36:09;10.70;;;5.40;;
44068;SDS011;29738;51.234;5.484;2022-10-04T02:38:39;10.43;;;6.00;;
44068;SDS011;29738;51.234;5.484;2022-10-04T02:41:30;12.65;;;5.57;;
44068;SDS011;29738;51.234;5.484;2022-10-04T02:46:28;10.90;;;5.28;;
44068;SDS011;29738;51.234;5.484;2022-10-04T02:49:09;13.20;;;5.55;;
44068;SDS011;29738;51.234;5.484;2022-10-04T02:52:01;9.40;;;5.07;;
44068;SDS011;29738;51.234;5.484;2022-10-04T02:57:16;10.43;;;5.28;;
44068;SDS011;29738;51.234;5.484;2022-10-04T02:59:44;11.38;;;5.63;;
44068;SDS011;29738;51.234;5.484;2022-10-04T03:02:21;10.40;;;6.00;;
44068;SDS011;29738;51.234;5.484;2022-10-04T03:04:50;9.82;;;4.88;;
44068;SDS011;29738;51.234;5.484;2022-10-04T03:07:19;11.10;;;5.85;;
44068;SDS011;29738;51.234;5.484;2022-10-04T03:09:46;10.45;;;5.45;;
44068;SDS011;29738;51.234;5.484;2022-10-04T03:12:13;10.70;;;5.40;;
44068;SDS011;29738;51.234;5.484;2022-10-04T03:14:39;10.85;;;5.35;;
44068;SDS011;29738;51.234;5.484;2022-10-04T03:17:07;11.20;;;5.47;;
44068;SDS011;29738;51.234;5.484;2022-10-04T03:19:33;12.75;;;6.15;;
44068;SDS011;29738;51.234;5.484;2022-10-04T03:22:02;11.68;;;5.53;;
44068;SDS011;29738;51.234;5.484;2022-10-04T03:24:46;10.23;;;5.80;;
44068;SDS011;29738;51.234;5.484;2022-10-04T03:27:21;8.98;;;4.88;;
44068;SDS011;29738;51.234;5.484;2022-10-04T03:29:52;11.68;;;5.30;;
44068;SDS011;29738;51.234;5.484;2022-10-04T03:32:18;11.20;;;5.47;;
44068;SDS011;29738;51.234;5.484;2022-10-04T03:34:52;10.70;;;5.55;;
44068;SDS011;29738;51.234;5.484;2022-10-04T03:37:23;10.48;;;5.65;;
44068;SDS011;29738;51.234;5.484;2022-10-04T03:39:54;11.55;;;5.97;;
44068;SDS011;29738;51.234;5.484;2022-10-04T03:44:50;10.95;;;6.07;;
44068;SDS011;29738;51.234;5.484;2022-10-04T03:47:25;11.70;;;5.90;;
44068;SDS011;29738;51.234;5.484;2022-10-04T03:49:55;11.35;;;5.43;;
44068;SDS011;29738;51.234;5.484;2022-10-04T03:52:28;9.60;;;5.22;;
44068;SDS011;29738;51.234;5.484;2022-10-04T03:54:59;8.70;;;5.17;;
44068;SDS011;29738;51.234;5.484;2022-10-04T03:57:27;10.00;;;5.72;;
44068;SDS011;29738;51.234;5.484;2022-10-04T03:59:54;13.02;;;5.85;;
44068;SDS011;29738;51.234;5.484;2022-10-04T04:02:29;11.15;;;5.30;;
44068;SDS011;29738;51.234;5.484;2022-10-04T04:05:17;9.63;;;4.82;;
44068;SDS011;29738;51.234;5.484;2022-10-04T04:08:03;13.05;;;5.53;;
44068;SDS011;29738;51.234;5.484;2022-10-04T04:10:34;11.35;;;5.10;;
44068;SDS011;29738;51.234;5.484;2022-10-04T04:15:59;10.68;;;4.35;;
44068;SDS011;29738;51.234;5.484;2022-10-04T04:18:28;10.90;;;4.80;;
44068;SDS011;29738;51.234;5.484;2022-10-04T04:20:58;11.68;;;4.90;;
44068;SDS011;29738;51.234;5.484;2022-10-04T04:23:29;9.55;;;4.93;;
44068;SDS011;29738;51.234;5.484;2022-10-04T04:29:17;10.75;;;4.80;;
44068;SDS011;29738;51.234;5.484;2022-10-04T04:34:24;11.57;;;4.85;;
44068;SDS011;29738;51.234;5.484;2022-10-04T04:36:58;8.25;;;4.65;;
44068;SDS011;29738;51.234;5.484;2022-10-04T04:39:25;7.93;;;4.00;;
44068;SDS011;29738;51.234;5.484;2022-10-04T04:42:22;9.30;;;4.68;;
44068;SDS011;29738;51.234;5.484;2022-10-04T04:44:56;11.63;;;4.57;;
44068;SDS011;29738;51.234;5.484;2022-10-04T04:49:54;8.05;;;4.25;;
44068;SDS011;29738;51.234;5.484;2022-10-04T04:52:24;8.38;;;3.70;;
44068;SDS011;29738;51.234;5.484;2022-10-04T04:54:53;8.43;;;4.38;;
44068;SDS011;29738;51.234;5.484;2022-10-04T04:57:20;8.38;;;3.80;;
44068;SDS011;29738;51.234;5.484;2022-10-04T04:59:47;10.88;;;4.30;;
44068;SDS011;29738;51.234;5.484;2022-10-04T05:03:17;7.20;;;3.72;;
44068;SDS011;29738;51.234;5.484;2022-10-04T05:05:20;8.88;;;3.92;;
44068;SDS011;29738;51.234;5.484;2022-10-04T05:10:57;7.97;;;3.97;;
44068;SDS011;29738;51.234;5.484;2022-10-04T05:16:23;12.65;;;4.32;;
44068;SDS011;29738;51.234;5.484;2022-10-04T05:18:57;8.90;;;4.00;;
44068;SDS011;29738;51.234;5.484;2022-10-04T05:21:27;9.63;;;4.47;;
44068;SDS011;29738;51.234;5.484;2022-10-04T05:23:55;11.02;;;4.05;;
44068;SDS011;29738;51.234;5.484;2022-10-04T05:26:30;7.55;;;4.00;;
44068;SDS011;29738;51.234;5.484;2022-10-04T05:28:58;7.38;;;3.55;;
44068;SDS011;29738;51.234;5.484;2022-10-04T05:31:34;8.65;;;3.85;;
44068;SDS011;29738;51.234;5.484;2022-10-04T05:34:20;7.82;;;4.10;;
44068;SDS011;29738;51.234;5.484;2022-10-04T05:37:00;7.88;;;3.95;;
44068;SDS011;29738;51.234;5.484;2022-10-04T05:40:32;8.73;;;4.10;;
44068;SDS011;29738;51.234;5.484;2022-10-04T05:42:46;9.15;;;4.15;;
44068;SDS011;29738;51.234;5.484;2022-10-04T05:45:21;9.35;;;4.32;;
44068;SDS011;29738;51.234;5.484;2022-10-04T05:47:50;10.40;;;4.20;;
44068;SDS011;29738;51.234;5.484;2022-10-04T05:50:19;10.93;;;4.03;;
44068;SDS011;29738;51.234;5.484;2022-10-04T05:58:32;11.52;;;5.35;;
44068;SDS011;29738;51.234;5.484;2022-10-04T06:03:56;11.48;;;4.88;;
44068;SDS011;29738;51.234;5.484;2022-10-04T06:06:39;7.90;;;4.18;;
44068;SDS011;29738;51.234;5.484;2022-10-04T06:12:00;9.70;;;4.47;;
44068;SDS011;29738;51.234;5.484;2022-10-04T06:14:39;7.70;;;4.15;;
44068;SDS011;29738;51.234;5.484;2022-10-04T06:20:29;10.98;;;4.82;;
44068;SDS011;29738;51.234;5.484;2022-10-04T06:23:04;8.80;;;4.70;;
44068;SDS011;29738;51.234;5.484;2022-10-04T06:25:39;10.02;;;4.55;;
44068;SDS011;29738;51.234;5.484;2022-10-04T06:28:20;11.77;;;5.00;;
44068;SDS011;29738;51.234;5.484;2022-10-04T06:33:48;11.88;;;5.07;;
44068;SDS011;29738;51.234;5.484;2022-10-04T06:36:49;10.60;;;4.85;;
44068;SDS011;29738;51.234;5.484;2022-10-04T06:44:58;10.88;;;5.57;;
44068;SDS011;29738;51.234;5.484;2022-10-04T07:04:15;14.65;;;5.35;;
44068;SDS011;29738;51.234;5.484;2022-10-04T07:06:46;9.93;;;4.45;;
44068;SDS011;29738;51.234;5.484;2022-10-04T07:09:15;10.20;;;4.53;;
44068;SDS011;29738;51.234;5.484;2022-10-04T07:11:49;11.23;;;4.68;;
44068;SDS011;29738;51.234;5.484;2022-10-04T07:14:33;11.43;;;4.78;;
44068;SDS011;29738;51.234;5.484;2022-10-04T07:17:13;9.95;;;4.90;;
44068;SDS011;29738;51.234;5.484;2022-10-04T07:19:45;9.50;;;4.65;;
44068;SDS011;29738;51.234;5.484;2022-10-04T07:22:21;10.05;;;4.47;;
44068;SDS011;29738;51.234;5.484;2022-10-04T07:27:23;13.35;;;4.60;;
44068;SDS011;29738;51.234;5.484;2022-10-04T07:30:12;11.10;;;5.38;;
44068;SDS011;29738;51.234;5.484;2022-10-04T07:32:47;12.18;;;5.15;;
44068;SDS011;29738;51.234;5.484;2022-10-04T07:35:27;9.98;;;4.53;;
44068;SDS011;29738;51.234;5.484;2022-10-04T07:38:13;13.13;;;4.95;;
44068;SDS011;29738;51.234;5.484;2022-10-04T07:40:57;10.35;;;4.85;;
44068;SDS011;29738;51.234;5.484;2022-10-04T07:43:32;10.25;;;4.20;;
44068;SDS011;29738;51.234;5.484;2022-10-04T07:46:09;8.70;;;4.20;;
44068;SDS011;29738;51.234;5.484;2022-10-04T07:48:42;8.52;;;4.20;;
44068;SDS011;29738;51.234;5.484;2022-10-04T07:51:18;14.27;;;4.72;;
44068;SDS011;29738;51.234;5.484;2022-10-04T07:54:31;12.70;;;4.38;;
44068;SDS011;29738;51.234;5.484;2022-10-04T07:57:11;9.30;;;4.45;;
44068;SDS011;29738;51.234;5.484;2022-10-04T07:59:51;9.02;;;4.55;;
44068;SDS011;29738;51.234;5.484;2022-10-04T08:02:30;8.27;;;4.55;;
44068;SDS011;29738;51.234;5.484;2022-10-04T08:15:58;8.50;;;4.35;;
44068;SDS011;29738;51.234;5.484;2022-10-04T08:18:59;10.63;;;4.55;;
44068;SDS011;29738;51.234;5.484;2022-10-04T08:27:25;11.40;;;4.40;;
44068;SDS011;29738;51.234;5.484;2022-10-04T08:30:27;10.95;;;4.07;;
44068;SDS011;29738;51.234;5.484;2022-10-04T08:33:11;10.63;;;4.00;;
44068;SDS011;29738;51.234;5.484;2022-10-04T08:36:02;8.82;;;3.70;;
44068;SDS011;29738;51.234;5.484;2022-10-04T08:38:51;10.32;;;4.18;;
44068;SDS011;29738;51.234;5.484;2022-10-04T09:01:37;8.07;;;3.60;;
44068;SDS011;29738;51.234;5.484;2022-10-04T09:07:08;9.48;;;4.15;;
44068;SDS011;29738;51.234;5.484;2022-10-04T09:13:11;10.95;;;4.38;;
44068;SDS011;29738;51.234;5.484;2022-10-04T09:18:43;10.30;;;4.45;;
44068;SDS011;29738;51.234;5.484;2022-10-04T09:21:21;12.88;;;4.47;;
44068;SDS011;29738;51.234;5.484;2022-10-04T09:35:12;8.43;;;4.20;;
44068;SDS011;29738;51.234;5.484;2022-10-04T09:38:18;7.35;;;3.53;;
44068;SDS011;29738;51.234;5.484;2022-10-04T09:41:20;8.10;;;4.17;;
44068;SDS011;29738;51.234;5.484;2022-10-04T09:52:22;9.65;;;4.47;;
44068;SDS011;29738;51.234;5.484;2022-10-04T09:55:15;10.68;;;4.75;;
44068;SDS011;29738;51.234;5.484;2022-10-04T10:08:24;8.80;;;4.80;;
44068;SDS011;29738;51.234;5.484;2022-10-04T10:34:15;7.82;;;3.80;;
44068;SDS011;29738;51.234;5.484;2022-10-04T10:42:33;8.10;;;3.75;;
44068;SDS011;29738;51.234;5.484;2022-10-04T10:48:01;8.15;;;4.25;;
44068;SDS011;29738;51.234;5.484;2022-10-04T10:56:22;7.47;;;3.47;;
44068;SDS011;29738;51.234;5.484;2022-10-04T11:10:21;8.32;;;4.10;;
44068;SDS011;29738;51.234;5.484;2022-10-04T11:27:33;8.75;;;4.13;;
44068;SDS011;29738;51.234;5.484;2022-10-04T11:30:25;7.45;;;3.25;;
44068;SDS011;29738;51.234;5.484;2022-10-04T11:38:42;6.72;;;3.50;;
44068;SDS011;29738;51.234;5.484;2022-10-04T11:47:17;8.10;;;3.30;;
44068;SDS011;29738;51.234;5.484;2022-10-04T11:50:02;9.48;;;3.70;;
44068;SDS011;29738;51.234;5.484;2022-10-04T11:55:24;7.82;;;3.42;;
44068;SDS011;29738;51.234;5.484;2022-10-04T12:00:45;10.10;;;3.35;;
44068;SDS011;29738;51.234;5.484;2022-10-04T12:31:45;6.93;;;3.13;;
44068;SDS011;29738;51.234;5.484;2022-10-04T12:40:05;6.53;;;2.92;;
44068;SDS011;29738;51.234;5.484;2022-10-04T12:48:01;5.55;;;2.90;;
44068;SDS011;29738;51.234;5.484;2022-10-04T12:56:07;7.28;;;3.45;;
44068;SDS011;29738;51.234;5.484;2022-10-04T13:04:25;7.88;;;3.45;;
44068;SDS011;29738;51.234;5.484;2022-10-04T13:07:08;5.95;;;2.85;;
44068;SDS011;29738;51.234;5.484;2022-10-04T13:18:06;7.85;;;3.10;;
44068;SDS011;29738;51.234;5.484;2022-10-04T13:20:44;7.00;;;3.33;;
44068;SDS011;29738;51.234;5.484;2022-10-04T13:41:51;7.18;;;3.42;;
44068;SDS011;29738;51.234;5.484;2022-10-04T13:44:28;6.65;;;3.65;;
44068;SDS011;29738;51.234;5.484;2022-10-04T13:52:55;7.95;;;3.65;;
44068;SDS011;29738;51.234;5.484;2022-10-04T13:56:03;6.72;;;3.40;;
44068;SDS011;29738;51.234;5.484;2022-10-04T13:58:52;6.22;;;3.20;;
44068;SDS011;29738;51.234;5.484;2022-10-04T14:26:00;6.38;;;2.70;;
44068;SDS011;29738;51.234;5.484;2022-10-04T14:36:49;5.80;;;2.75;;
44068;SDS011;29738;51.234;5.484;2022-10-04T14:51:33;6.22;;;3.00;;
44068;SDS011;29738;51.234;5.484;2022-10-04T14:56:46;7.00;;;2.95;;
44068;SDS011;29738;51.234;5.484;2022-10-04T15:19:08;8.45;;;3.08;;
44068;SDS011;29738;51.234;5.484;2022-10-04T15:21:49;5.95;;;3.10;;
44068;SDS011;29738;51.234;5.484;2022-10-04T15:24:28;5.57;;;2.90;;
44068;SDS011;29738;51.234;5.484;2022-10-04T15:26:59;7.85;;;3.58;;
44068;SDS011;29738;51.234;5.484;2022-10-04T15:43:56;7.57;;;3.15;;
44068;SDS011;29738;51.234;5.484;2022-10-04T15:49:30;8.52;;;3.70;;
44068;SDS011;29738;51.234;5.484;2022-10-04T15:55:18;7.40;;;2.95;;
44068;SDS011;29738;51.234;5.484;2022-10-04T16:00:21;12.70;;;5.68;;
44068;SDS011;29738;51.234;5.484;2022-10-04T16:05:42;10.98;;;4.55;;
44068;SDS011;29738;51.234;5.484;2022-10-04T16:08:35;7.72;;;3.40;;
44068;SDS011;29738;51.234;5.484;2022-10-04T16:14:19;32.22;;;16.48;;
44068;SDS011;29738;51.234;5.484;2022-10-04T16:24:57;7.10;;;3.70;;
44068;SDS011;29738;51.234;5.484;2022-10-04T16:27:50;6.85;;;3.30;;
44068;SDS011;29738;51.234;5.484;2022-10-04T16:30:39;8.93;;;3.30;;
44068;SDS011;29738;51.234;5.484;2022-10-04T16:33:25;6.88;;;3.10;;
44068;SDS011;29738;51.234;5.484;2022-10-04T16:36:10;9.00;;;3.78;;
44068;SDS011;29738;51.234;5.484;2022-10-04T16:38:46;6.80;;;3.42;;
44068;SDS011;29738;51.234;5.484;2022-10-04T16:46:59;7.25;;;4.60;;
44068;SDS011;29738;51.234;5.484;2022-10-04T16:49:44;8.75;;;4.13;;
44068;SDS011;29738;51.234;5.484;2022-10-04T16:58:34;11.52;;;5.93;;
44068;SDS011;29738;51.234;5.484;2022-10-04T17:04:00;10.32;;;4.13;;
44068;SDS011;29738;51.234;5.484;2022-10-04T17:06:54;8.07;;;5.10;;
44068;SDS011;29738;51.234;5.484;2022-10-04T17:28:28;9.52;;;4.60;;
44068;SDS011;29738;51.234;5.484;2022-10-04T17:36:40;8.52;;;4.35;;
44068;SDS011;29738;51.234;5.484;2022-10-04T17:48:09;9.80;;;4.70;;
44068;SDS011;29738;51.234;5.484;2022-10-04T17:51:02;9.27;;;4.93;;
44068;SDS011;29738;51.234;5.484;2022-10-04T17:53:56;9.60;;;4.90;;
44068;SDS011;29738;51.234;5.484;2022-10-04T17:56:48;10.15;;;4.68;;
44068;SDS011;29738;51.234;5.484;2022-10-04T17:59:43;8.93;;;5.28;;
44068;SDS011;29738;51.234;5.484;2022-10-04T18:02:17;8.20;;;5.20;;
44068;SDS011;29738;51.234;5.484;2022-10-04T18:05:02;9.18;;;5.57;;
44068;SDS011;29738;51.234;5.484;2022-10-04T18:07:47;9.25;;;4.85;;
44068;SDS011;29738;51.234;5.484;2022-10-04T18:10:32;10.90;;;6.00;;
44068;SDS011;29738;51.234;5.484;2022-10-04T18:13:09;9.25;;;5.43;;
44068;SDS011;29738;51.234;5.484;2022-10-04T18:15:53;9.02;;;5.53;;
44068;SDS011;29738;51.234;5.484;2022-10-04T18:18:40;10.02;;;5.82;;
44068;SDS011;29738;51.234;5.484;2022-10-04T18:21:18;12.13;;;6.55;;
44068;SDS011;29738;51.234;5.484;2022-10-04T18:26:39;12.20;;;6.57;;
44068;SDS011;29738;51.234;5.484;2022-10-04T18:29:38;10.75;;;5.95;;
44068;SDS011;29738;51.234;5.484;2022-10-04T18:32:29;10.48;;;6.32;;
44068;SDS011;29738;51.234;5.484;2022-10-04T18:35:00;11.45;;;6.47;;
44068;SDS011;29738;51.234;5.484;2022-10-04T18:37:42;11.48;;;6.20;;
44068;SDS011;29738;51.234;5.484;2022-10-04T18:40:16;12.43;;;6.95;;
44068;SDS011;29738;51.234;5.484;2022-10-04T18:42:42;11.70;;;6.43;;
44068;SDS011;29738;51.234;5.484;2022-10-04T18:45:19;11.05;;;6.03;;
44068;SDS011;29738;51.234;5.484;2022-10-04T18:47:47;11.93;;;6.53;;
44068;SDS011;29738;51.234;5.484;2022-10-04T18:59:04;10.77;;;6.32;;
44068;SDS011;29738;51.234;5.484;2022-10-04T19:07:57;12.32;;;5.85;;
44068;SDS011;29738;51.234;5.484;2022-10-04T19:10:33;10.18;;;5.60;;
44068;SDS011;29738;51.234;5.484;2022-10-04T19:18:45;13.63;;;5.88;;
44068;SDS011;29738;51.234;5.484;2022-10-04T19:21:38;13.25;;;6.13;;
44068;SDS011;29738;51.234;5.484;2022-10-04T19:27:23;12.98;;;6.18;;
44068;SDS011;29738;51.234;5.484;2022-10-04T19:30:22;10.70;;;5.88;;
44068;SDS011;29738;51.234;5.484;2022-10-04T19:35:57;11.48;;;6.35;;
44068;SDS011;29738;51.234;5.484;2022-10-04T19:44:15;10.32;;;5.65;;
44068;SDS011;29738;51.234;5.484;2022-10-04T19:52:49;9.30;;;6.03;;
44068;SDS011;29738;51.234;5.484;2022-10-04T19:55:54;13.15;;;6.03;;
44068;SDS011;29738;51.234;5.484;2022-10-04T20:01:18;11.45;;;7.15;;
44068;SDS011;29738;51.234;5.484;2022-10-04T20:03:47;10.68;;;6.07;;
44068;SDS011;29738;51.234;5.484;2022-10-04T20:06:34;13.70;;;6.82;;
44068;SDS011;29738;51.234;5.484;2022-10-04T20:09:22;13.30;;;6.63;;
44068;SDS011;29738;51.234;5.484;2022-10-04T20:12:00;9.82;;;5.57;;
44068;SDS011;29738;51.234;5.484;2022-10-04T20:19:18;9.57;;;5.18;;
44068;SDS011;29738;51.234;5.484;2022-10-04T20:33:02;11.25;;;5.95;;
44068;SDS011;29738;51.234;5.484;2022-10-04T20:35:10;10.38;;;5.60;;
44068;SDS011;29738;51.234;5.484;2022-10-04T20:40:09;12.18;;;5.88;;
44068;SDS011;29738;51.234;5.484;2022-10-04T20:45:46;12.23;;;6.32;;
44068;SDS011;29738;51.234;5.484;2022-10-04T20:48:17;11.77;;;6.10;;
44068;SDS011;29738;51.234;5.484;2022-10-04T20:50:45;10.73;;;5.68;;
44068;SDS011;29738;51.234;5.484;2022-10-04T20:53:24;9.93;;;5.45;;
44068;SDS011;29738;51.234;5.484;2022-10-04T20:58:38;11.05;;;5.82;;
44068;SDS011;29738;51.234;5.484;2022-10-04T21:07:09;10.30;;;5.63;;
44068;SDS011;29738;51.234;5.484;2022-10-04T21:09:37;10.75;;;5.95;;
44068;SDS011;29738;51.234;5.484;2022-10-04T21:12:05;13.73;;;7.20;;
44068;SDS011;29738;51.234;5.484;2022-10-04T21:19:56;11.45;;;6.03;;
44068;SDS011;29738;51.234;5.484;2022-10-04T21:24:53;12.18;;;6.70;;
44068;SDS011;29738;51.234;5.484;2022-10-04T21:27:24;14.27;;;6.90;;
44068;SDS011;29738;51.234;5.484;2022-10-04T21:32:20;12.60;;;7.18;;
44068;SDS011;29738;51.234;5.484;2022-10-04T21:34:47;13.52;;;6.57;;
44068;SDS011;29738;51.234;5.484;2022-10-04T21:37:13;13.10;;;6.85;;
44068;SDS011;29738;51.234;5.484;2022-10-04T21:39:39;11.70;;;6.60;;
44068;SDS011;29738;51.234;5.484;2022-10-04T21:42:05;13.30;;;7.18;;
44068;SDS011;29738;51.234;5.484;2022-10-04T21:44:31;11.55;;;6.15;;
44068;SDS011;29738;51.234;5.484;2022-10-04T21:46:57;10.88;;;6.20;;
44068;SDS011;29738;51.234;5.484;2022-10-04T21:49:22;15.38;;;7.20;;
44068;SDS011;29738;51.234;5.484;2022-10-04T21:51:48;14.73;;;6.60;;
44068;SDS011;29738;51.234;5.484;2022-10-04T21:54:14;13.57;;;6.97;;
44068;SDS011;29738;51.234;5.484;2022-10-04T21:56:40;12.50;;;6.57;;
44068;SDS011;29738;51.234;5.484;2022-10-04T21:59:06;12.10;;;6.82;;
44068;SDS011;29738;51.234;5.484;2022-10-04T22:01:31;14.02;;;7.20;;
44068;SDS011;29738;51.234;5.484;2022-10-04T22:03:57;12.20;;;6.88;;
44068;SDS011;29738;51.234;5.484;2022-10-04T22:06:23;17.17;;;7.47;;
44068;SDS011;29738;51.234;5.484;2022-10-04T22:08:49;11.10;;;6.90;;
44068;SDS011;29738;51.234;5.484;2022-10-04T22:11:15;14.20;;;6.85;;
44068;SDS011;29738;51.234;5.484;2022-10-04T22:13:41;13.27;;;7.13;;
44068;SDS011;29738;51.234;5.484;2022-10-04T22:16:07;15.10;;;7.60;;
44068;SDS011;29738;51.234;5.484;2022-10-04T22:18:33;13.55;;;7.07;;
44068;SDS011;29738;51.234;5.484;2022-10-04T22:20:59;13.98;;;7.25;;
44068;SDS011;29738;51.234;5.484;2022-10-04T22:23:26;13.90;;;7.72;;
44068;SDS011;29738;51.234;5.484;2022-10-04T22:25:53;14.38;;;7.50;;
44068;SDS011;29738;51.234;5.484;2022-10-04T22:28:26;13.05;;;7.10;;
44068;SDS011;29738;51.234;5.484;2022-10-04T22:30:53;11.80;;;6.72;;
44068;SDS011;29738;51.234;5.484;2022-10-04T22:38:41;14.95;;;7.40;;
44068;SDS011;29738;51.234;5.484;2022-10-04T22:41:13;11.55;;;6.35;;
44068;SDS011;29738;51.234;5.484;2022-10-04T22:43:40;12.60;;;6.78;;
44068;SDS011;29738;51.234;5.484;2022-10-04T22:46:13;13.60;;;6.47;;
44068;SDS011;29738;51.234;5.484;2022-10-04T22:48:45;11.80;;;7.22;;
44068;SDS011;29738;51.234;5.484;2022-10-04T22:51:12;11.18;;;6.05;;
44068;SDS011;29738;51.234;5.484;2022-10-04T22:53:43;11.20;;;6.63;;
44068;SDS011;29738;51.234;5.484;2022-10-04T22:56:13;14.43;;;6.50;;
44068;SDS011;29738;51.234;5.484;2022-10-04T22:58:40;16.02;;;6.95;;
44068;SDS011;29738;51.234;5.484;2022-10-04T23:01:13;13.13;;;6.80;;
44068;SDS011;29738;51.234;5.484;2022-10-04T23:03:43;12.68;;;6.68;;
44068;SDS011;29738;51.234;5.484;2022-10-04T23:06:10;13.68;;;7.30;;
44068;SDS011;29738;51.234;5.484;2022-10-04T23:08:42;14.40;;;6.70;;
44068;SDS011;29738;51.234;5.484;2022-10-04T23:11:08;12.52;;;6.60;;
44068;SDS011;29738;51.234;5.484;2022-10-04T23:13:35;11.77;;;6.60;;
44068;SDS011;29738;51.234;5.484;2022-10-04T23:16:08;12.23;;;6.50;;
44068;SDS011;29738;51.234;5.484;2022-10-04T23:18:38;10.32;;;5.97;;
44068;SDS011;29738;51.234;5.484;2022-10-04T23:21:07;12.45;;;6.55;;
44068;SDS011;29738;51.234;5.484;2022-10-04T23:23:43;11.02;;;6.13;;
44068;SDS011;29738;51.234;5.484;2022-10-04T23:26:13;14.85;;;6.57;;
44068;SDS011;29738;51.234;5.484;2022-10-04T23:28:46;13.25;;;6.82;;
44068;SDS011;29738;51.234;5.484;2022-10-04T23:31:21;11.98;;;6.55;;
44068;SDS011;29738;51.234;5.484;2022-10-04T23:33:49;14.25;;;7.00;;
44068;SDS011;29738;51.234;5.484;2022-10-04T23:36:16;11.60;;;6.43;;
44068;SDS011;29738;51.234;5.484;2022-10-04T23:38:48;11.85;;;6.20;;
44068;SDS011;29738;51.234;5.484;2022-10-04T23:41:16;14.57;;;6.78;;
44068;SDS011;29738;51.234;5.484;2022-10-04T23:43:43;13.93;;;6.20;;
44068;SDS011;29738;51.234;5.484;2022-10-04T23:46:12;10.27;;;5.60;;
44068;SDS011;29738;51.234;5.484;2022-10-04T23:48:41;12.52;;;6.70;;
44068;SDS011;29738;51.234;5.484;2022-10-04T23:51:09;12.70;;;6.45;;
44068;SDS011;29738;51.234;5.484;2022-10-04T23:53:38;14.18;;;6.78;;
44068;SDS011;29738;51.234;5.484;2022-10-04T23:56:09;13.32;;;6.75;;
44068;SDS011;29738;51.234;5.484;2022-10-04T23:58:43;13.00;;;6.38;;
